sensor_id;sensor_type;location;lat;lon;timestamp;P1;durP1;ratioP1;P2;durP2;ratioP2
6852;SDS011;3465;42.144;24.722;2024-03-17T00:00:22;26.42;;;12.75;;
6852;SDS011;3465;42.144;24.722;2024-03-17T00:02:48;29.60;;;13.57;;
6852;SDS011;3465;42.144;24.722;2024-03-17T00:05:17;25.05;;;13.05;;
6852;SDS011;3465;42.144;24.722;2024-03-17T00:07:43;27.48;;;14.52;;
6852;SDS011;3465;42.144;24.722;2024-03-17T00:10:09;27.23;;;14.93;;
6852;SDS011;3465;42.144;24.722;2024-03-17T00:15:01;21.35;;;12.43;;
6852;SDS011;3465;42.144;24.722;2024-03-17T00:17:28;23.98;;;14.07;;
6852;SDS011;3465;42.144;24.722;2024-03-17T00:19:53;27.55;;;15.60;;
6852;SDS011;3465;42.144;24.722;2024-03-17T00:24:45;27.60;;;14.15;;
6852;SDS011;3465;42.144;24.722;2024-03-17T00:27:11;27.88;;;15.18;;
6852;SDS011;3465;42.144;24.722;2024-03-17T00:29:37;28.55;;;14.00;;
6852;SDS011;3465;42.144;24.722;2024-03-17T00:32:03;33.42;;;16.27;;
6852;SDS011;3465;42.144;24.722;2024-03-17T00:34:29;27.65;;;15.45;;
6852;SDS011;3465;42.144;24.722;2024-03-17T00:36:55;28.88;;;15.75;;
6852;SDS011;3465;42.144;24.722;2024-03-17T00:39:20;27.42;;;14.80;;
6852;SDS011;3465;42.144;24.722;2024-03-17T00:41:46;31.65;;;15.98;;
6852;SDS011;3465;42.144;24.722;2024-03-17T00:44:11;23.67;;;15.50;;
6852;SDS011;3465;42.144;24.722;2024-03-17T00:46:37;24.45;;;15.10;;
6852;SDS011;3465;42.144;24.722;2024-03-17T00:49:03;25.10;;;15.13;;
6852;SDS011;3465;42.144;24.722;2024-03-17T00:51:33;27.70;;;14.73;;
6852;SDS011;3465;42.144;24.722;2024-03-17T00:53:58;27.23;;;15.30;;
6852;SDS011;3465;42.144;24.722;2024-03-17T00:56:24;26.38;;;15.65;;
6852;SDS011;3465;42.144;24.722;2024-03-17T00:58:50;30.10;;;14.75;;
6852;SDS011;3465;42.144;24.722;2024-03-17T01:01:16;29.33;;;16.08;;
6852;SDS011;3465;42.144;24.722;2024-03-17T01:03:42;25.35;;;15.57;;
6852;SDS011;3465;42.144;24.722;2024-03-17T01:06:08;24.73;;;14.60;;
6852;SDS011;3465;42.144;24.722;2024-03-17T01:08:34;24.42;;;14.45;;
6852;SDS011;3465;42.144;24.722;2024-03-17T01:10:59;26.95;;;14.60;;
6852;SDS011;3465;42.144;24.722;2024-03-17T01:13:24;26.98;;;14.77;;
6852;SDS011;3465;42.144;24.722;2024-03-17T01:15:53;27.55;;;14.45;;
6852;SDS011;3465;42.144;24.722;2024-03-17T01:18:18;27.20;;;13.07;;
6852;SDS011;3465;42.144;24.722;2024-03-17T01:20:44;24.33;;;13.73;;
6852;SDS011;3465;42.144;24.722;2024-03-17T01:23:11;21.33;;;13.10;;
6852;SDS011;3465;42.144;24.722;2024-03-17T01:25:36;25.38;;;13.48;;
6852;SDS011;3465;42.144;24.722;2024-03-17T01:28:05;24.88;;;13.07;;
6852;SDS011;3465;42.144;24.722;2024-03-17T01:30:31;22.35;;;12.10;;
6852;SDS011;3465;42.144;24.722;2024-03-17T01:32:58;21.85;;;13.93;;
6852;SDS011;3465;42.144;24.722;2024-03-17T01:35:26;23.90;;;12.27;;
6852;SDS011;3465;42.144;24.722;2024-03-17T01:37:52;22.85;;;12.75;;
6852;SDS011;3465;42.144;24.722;2024-03-17T01:40:18;24.67;;;13.10;;
6852;SDS011;3465;42.144;24.722;2024-03-17T01:42:44;23.60;;;12.35;;
6852;SDS011;3465;42.144;24.722;2024-03-17T01:47:57;24.13;;;13.82;;
6852;SDS011;3465;42.144;24.722;2024-03-17T01:50:35;22.40;;;12.80;;
6852;SDS011;3465;42.144;24.722;2024-03-17T01:53:02;19.85;;;12.27;;
6852;SDS011;3465;42.144;24.722;2024-03-17T01:55:35;25.38;;;12.48;;
6852;SDS011;3465;42.144;24.722;2024-03-17T01:58:03;20.25;;;12.63;;
6852;SDS011;3465;42.144;24.722;2024-03-17T02:00:32;19.45;;;11.90;;
6852;SDS011;3465;42.144;24.722;2024-03-17T02:02:59;25.77;;;14.18;;
6852;SDS011;3465;42.144;24.722;2024-03-17T02:05:24;22.38;;;12.00;;
6852;SDS011;3465;42.144;24.722;2024-03-17T02:07:52;28.25;;;13.15;;
6852;SDS011;3465;42.144;24.722;2024-03-17T02:10:17;20.08;;;13.43;;
6852;SDS011;3465;42.144;24.722;2024-03-17T02:12:43;21.17;;;11.07;;
6852;SDS011;3465;42.144;24.722;2024-03-17T02:15:08;20.83;;;11.73;;
6852;SDS011;3465;42.144;24.722;2024-03-17T02:17:34;22.25;;;11.85;;
6852;SDS011;3465;42.144;24.722;2024-03-17T02:20:00;19.40;;;10.50;;
6852;SDS011;3465;42.144;24.722;2024-03-17T02:22:26;22.73;;;11.77;;
6852;SDS011;3465;42.144;24.722;2024-03-17T02:24:53;22.08;;;11.82;;
6852;SDS011;3465;42.144;24.722;2024-03-17T02:27:19;21.63;;;12.07;;
6852;SDS011;3465;42.144;24.722;2024-03-17T02:29:44;21.45;;;12.20;;
6852;SDS011;3465;42.144;24.722;2024-03-17T02:32:10;21.10;;;11.95;;
6852;SDS011;3465;42.144;24.722;2024-03-17T02:37:04;23.85;;;11.80;;
6852;SDS011;3465;42.144;24.722;2024-03-17T02:39:32;18.80;;;10.90;;
6852;SDS011;3465;42.144;24.722;2024-03-17T02:42:03;20.55;;;11.77;;
6852;SDS011;3465;42.144;24.722;2024-03-17T02:44:33;23.08;;;12.10;;
6852;SDS011;3465;42.144;24.722;2024-03-17T02:47:01;23.33;;;11.52;;
6852;SDS011;3465;42.144;24.722;2024-03-17T02:49:29;22.75;;;10.93;;
6852;SDS011;3465;42.144;24.722;2024-03-17T02:52:05;28.27;;;11.02;;
6852;SDS011;3465;42.144;24.722;2024-03-17T02:54:34;24.95;;;11.32;;
6852;SDS011;3465;42.144;24.722;2024-03-17T02:57:00;20.10;;;10.50;;
6852;SDS011;3465;42.144;24.722;2024-03-17T02:59:26;21.58;;;10.98;;
6852;SDS011;3465;42.144;24.722;2024-03-17T03:01:52;16.80;;;9.73;;
6852;SDS011;3465;42.144;24.722;2024-03-17T03:04:18;22.38;;;11.65;;
6852;SDS011;3465;42.144;24.722;2024-03-17T03:06:43;20.83;;;11.40;;
6852;SDS011;3465;42.144;24.722;2024-03-17T03:09:09;19.42;;;10.93;;
6852;SDS011;3465;42.144;24.722;2024-03-17T03:11:42;22.48;;;11.23;;
6852;SDS011;3465;42.144;24.722;2024-03-17T03:14:07;20.40;;;11.23;;
6852;SDS011;3465;42.144;24.722;2024-03-17T03:16:33;18.80;;;10.38;;
6852;SDS011;3465;42.144;24.722;2024-03-17T03:18:59;16.65;;;10.38;;
6852;SDS011;3465;42.144;24.722;2024-03-17T03:21:25;16.50;;;10.48;;
6852;SDS011;3465;42.144;24.722;2024-03-17T03:23:51;17.45;;;9.90;;
6852;SDS011;3465;42.144;24.722;2024-03-17T03:26:17;21.00;;;10.55;;
6852;SDS011;3465;42.144;24.722;2024-03-17T03:28:43;18.08;;;11.27;;
6852;SDS011;3465;42.144;24.722;2024-03-17T03:31:12;16.17;;;10.50;;
6852;SDS011;3465;42.144;24.722;2024-03-17T03:33:38;19.88;;;9.60;;
6852;SDS011;3465;42.144;24.722;2024-03-17T03:36:11;17.55;;;9.48;;
6852;SDS011;3465;42.144;24.722;2024-03-17T03:38:37;19.70;;;9.68;;
6852;SDS011;3465;42.144;24.722;2024-03-17T03:41:07;19.10;;;10.18;;
6852;SDS011;3465;42.144;24.722;2024-03-17T03:43:38;16.95;;;9.73;;
6852;SDS011;3465;42.144;24.722;2024-03-17T03:46:03;30.77;;;15.00;;
6852;SDS011;3465;42.144;24.722;2024-03-17T03:48:30;32.55;;;16.83;;
6852;SDS011;3465;42.144;24.722;2024-03-17T03:50:55;22.65;;;11.63;;
6852;SDS011;3465;42.144;24.722;2024-03-17T03:53:21;21.27;;;12.00;;
6852;SDS011;3465;42.144;24.722;2024-03-17T03:58:14;17.33;;;11.48;;
6852;SDS011;3465;42.144;24.722;2024-03-17T04:00:39;18.70;;;11.05;;
6852;SDS011;3465;42.144;24.722;2024-03-17T04:03:05;17.15;;;10.73;;
6852;SDS011;3465;42.144;24.722;2024-03-17T04:05:31;17.85;;;9.73;;
6852;SDS011;3465;42.144;24.722;2024-03-17T04:07:57;19.67;;;11.05;;
6852;SDS011;3465;42.144;24.722;2024-03-17T04:10:23;15.48;;;9.70;;
6852;SDS011;3465;42.144;24.722;2024-03-17T04:12:49;17.33;;;10.50;;
6852;SDS011;3465;42.144;24.722;2024-03-17T04:15:16;16.55;;;10.55;;
6852;SDS011;3465;42.144;24.722;2024-03-17T04:17:42;21.02;;;11.65;;
6852;SDS011;3465;42.144;24.722;2024-03-17T04:20:08;17.80;;;10.65;;
6852;SDS011;3465;42.144;24.722;2024-03-17T04:22:35;17.77;;;10.48;;
6852;SDS011;3465;42.144;24.722;2024-03-17T04:25:01;21.02;;;11.25;;
6852;SDS011;3465;42.144;24.722;2024-03-17T04:27:29;19.48;;;10.18;;
6852;SDS011;3465;42.144;24.722;2024-03-17T04:29:56;17.98;;;9.75;;
6852;SDS011;3465;42.144;24.722;2024-03-17T04:32:23;16.73;;;10.70;;
6852;SDS011;3465;42.144;24.722;2024-03-17T04:34:49;18.13;;;9.90;;
6852;SDS011;3465;42.144;24.722;2024-03-17T04:37:15;19.33;;;10.50;;
6852;SDS011;3465;42.144;24.722;2024-03-17T04:39:42;17.73;;;10.40;;
6852;SDS011;3465;42.144;24.722;2024-03-17T04:42:08;20.50;;;10.45;;
6852;SDS011;3465;42.144;24.722;2024-03-17T04:44:35;17.40;;;10.68;;
6852;SDS011;3465;42.144;24.722;2024-03-17T04:47:00;19.52;;;10.65;;
6852;SDS011;3465;42.144;24.722;2024-03-17T04:49:27;20.10;;;10.95;;
6852;SDS011;3465;42.144;24.722;2024-03-17T04:51:53;19.65;;;10.45;;
6852;SDS011;3465;42.144;24.722;2024-03-17T04:54:18;21.38;;;11.25;;
6852;SDS011;3465;42.144;24.722;2024-03-17T04:56:44;16.73;;;9.90;;
6852;SDS011;3465;42.144;24.722;2024-03-17T04:59:09;17.08;;;10.20;;
6852;SDS011;3465;42.144;24.722;2024-03-17T05:01:34;26.35;;;10.70;;
6852;SDS011;3465;42.144;24.722;2024-03-17T05:04:04;16.83;;;10.13;;
6852;SDS011;3465;42.144;24.722;2024-03-17T05:06:30;20.77;;;9.95;;
6852;SDS011;3465;42.144;24.722;2024-03-17T05:08:56;16.58;;;9.63;;
6852;SDS011;3465;42.144;24.722;2024-03-17T05:11:21;23.77;;;10.93;;
6852;SDS011;3465;42.144;24.722;2024-03-17T05:13:49;18.60;;;10.32;;
6852;SDS011;3465;42.144;24.722;2024-03-17T05:16:15;17.52;;;9.45;;
6852;SDS011;3465;42.144;24.722;2024-03-17T05:18:41;16.33;;;9.88;;
6852;SDS011;3465;42.144;24.722;2024-03-17T05:21:06;18.70;;;10.52;;
6852;SDS011;3465;42.144;24.722;2024-03-17T05:23:36;17.95;;;10.52;;
6852;SDS011;3465;42.144;24.722;2024-03-17T05:26:02;20.88;;;10.98;;
6852;SDS011;3465;42.144;24.722;2024-03-17T05:28:31;18.52;;;9.68;;
6852;SDS011;3465;42.144;24.722;2024-03-17T05:30:58;17.85;;;10.10;;
6852;SDS011;3465;42.144;24.722;2024-03-17T05:33:24;19.90;;;9.68;;
6852;SDS011;3465;42.144;24.722;2024-03-17T05:35:51;19.58;;;11.45;;
6852;SDS011;3465;42.144;24.722;2024-03-17T05:38:19;17.55;;;10.65;;
6852;SDS011;3465;42.144;24.722;2024-03-17T05:40:55;19.70;;;11.85;;
6852;SDS011;3465;42.144;24.722;2024-03-17T05:43:28;21.23;;;11.40;;
6852;SDS011;3465;42.144;24.722;2024-03-17T05:46:02;18.30;;;10.82;;
6852;SDS011;3465;42.144;24.722;2024-03-17T05:48:29;19.65;;;10.32;;
6852;SDS011;3465;42.144;24.722;2024-03-17T05:50:55;20.63;;;11.70;;
6852;SDS011;3465;42.144;24.722;2024-03-17T05:53:21;22.70;;;12.48;;
6852;SDS011;3465;42.144;24.722;2024-03-17T05:55:51;26.92;;;12.85;;
6852;SDS011;3465;42.144;24.722;2024-03-17T05:58:16;19.60;;;11.88;;
6852;SDS011;3465;42.144;24.722;2024-03-17T06:00:42;23.52;;;12.70;;
6852;SDS011;3465;42.144;24.722;2024-03-17T06:05:35;21.15;;;11.25;;
6852;SDS011;3465;42.144;24.722;2024-03-17T06:08:01;20.88;;;12.07;;
6852;SDS011;3465;42.144;24.722;2024-03-17T06:10:28;27.00;;;12.95;;
6852;SDS011;3465;42.144;24.722;2024-03-17T06:12:55;23.27;;;12.63;;
6852;SDS011;3465;42.144;24.722;2024-03-17T06:15:22;20.48;;;12.35;;
6852;SDS011;3465;42.144;24.722;2024-03-17T06:20:14;18.38;;;11.50;;
6852;SDS011;3465;42.144;24.722;2024-03-17T06:22:41;19.27;;;11.98;;
6852;SDS011;3465;42.144;24.722;2024-03-17T06:25:06;22.02;;;12.63;;
6852;SDS011;3465;42.144;24.722;2024-03-17T06:27:32;22.52;;;11.95;;
6852;SDS011;3465;42.144;24.722;2024-03-17T06:30:01;22.63;;;10.90;;
6852;SDS011;3465;42.144;24.722;2024-03-17T06:32:30;20.58;;;11.77;;
6852;SDS011;3465;42.144;24.722;2024-03-17T06:34:59;25.77;;;11.70;;
6852;SDS011;3465;42.144;24.722;2024-03-17T06:37:26;22.10;;;12.73;;
6852;SDS011;3465;42.144;24.722;2024-03-17T06:39:52;23.17;;;14.07;;
6852;SDS011;3465;42.144;24.722;2024-03-17T06:44:44;23.52;;;12.60;;
6852;SDS011;3465;42.144;24.722;2024-03-17T06:47:09;25.85;;;13.07;;
6852;SDS011;3465;42.144;24.722;2024-03-17T06:49:35;23.88;;;13.77;;
6852;SDS011;3465;42.144;24.722;2024-03-17T06:52:00;22.50;;;12.68;;
6852;SDS011;3465;42.144;24.722;2024-03-17T06:54:26;23.85;;;14.52;;
6852;SDS011;3465;42.144;24.722;2024-03-17T06:56:51;21.30;;;13.05;;
6852;SDS011;3465;42.144;24.722;2024-03-17T06:59:17;22.60;;;12.98;;
6852;SDS011;3465;42.144;24.722;2024-03-17T07:01:43;20.27;;;12.13;;
6852;SDS011;3465;42.144;24.722;2024-03-17T07:04:09;22.52;;;12.18;;
6852;SDS011;3465;42.144;24.722;2024-03-17T07:06:36;21.13;;;12.80;;
6852;SDS011;3465;42.144;24.722;2024-03-17T07:11:27;24.50;;;12.60;;
6852;SDS011;3465;42.144;24.722;2024-03-17T07:13:53;21.15;;;12.90;;
6852;SDS011;3465;42.144;24.722;2024-03-17T07:16:18;19.27;;;11.68;;
6852;SDS011;3465;42.144;24.722;2024-03-17T07:18:46;24.80;;;12.70;;
6852;SDS011;3465;42.144;24.722;2024-03-17T07:21:12;23.67;;;12.90;;
6852;SDS011;3465;42.144;24.722;2024-03-17T07:23:38;21.95;;;13.20;;
6852;SDS011;3465;42.144;24.722;2024-03-17T07:26:04;20.23;;;11.50;;
6852;SDS011;3465;42.144;24.722;2024-03-17T07:28:30;17.63;;;11.43;;
6852;SDS011;3465;42.144;24.722;2024-03-17T07:30:57;21.02;;;12.05;;
6852;SDS011;3465;42.144;24.722;2024-03-17T07:33:25;20.98;;;12.23;;
6852;SDS011;3465;42.144;24.722;2024-03-17T07:35:54;18.77;;;11.50;;
6852;SDS011;3465;42.144;24.722;2024-03-17T07:38:22;18.73;;;12.07;;
6852;SDS011;3465;42.144;24.722;2024-03-17T07:41:01;20.45;;;11.32;;
6852;SDS011;3465;42.144;24.722;2024-03-17T07:43:28;17.23;;;11.65;;
6852;SDS011;3465;42.144;24.722;2024-03-17T07:46:02;18.98;;;11.70;;
6852;SDS011;3465;42.144;24.722;2024-03-17T07:48:30;16.42;;;10.57;;
6852;SDS011;3465;42.144;24.722;2024-03-17T07:50:58;19.80;;;11.55;;
6852;SDS011;3465;42.144;24.722;2024-03-17T07:53:29;20.83;;;11.60;;
6852;SDS011;3465;42.144;24.722;2024-03-17T07:55:59;20.50;;;12.25;;
6852;SDS011;3465;42.144;24.722;2024-03-17T07:58:29;20.85;;;12.55;;
6852;SDS011;3465;42.144;24.722;2024-03-17T08:00:58;23.02;;;11.43;;
6852;SDS011;3465;42.144;24.722;2024-03-17T08:03:26;18.65;;;11.50;;
6852;SDS011;3465;42.144;24.722;2024-03-17T08:05:52;23.90;;;11.73;;
6852;SDS011;3465;42.144;24.722;2024-03-17T08:08:18;19.42;;;11.25;;
6852;SDS011;3465;42.144;24.722;2024-03-17T08:10:44;17.63;;;11.40;;
6852;SDS011;3465;42.144;24.722;2024-03-17T08:13:13;18.48;;;11.13;;
6852;SDS011;3465;42.144;24.722;2024-03-17T08:15:41;22.70;;;12.45;;
6852;SDS011;3465;42.144;24.722;2024-03-17T08:18:08;18.23;;;12.32;;
6852;SDS011;3465;42.144;24.722;2024-03-17T08:20:37;17.40;;;10.35;;
6852;SDS011;3465;42.144;24.722;2024-03-17T08:23:04;18.27;;;11.40;;
6852;SDS011;3465;42.144;24.722;2024-03-17T08:25:34;19.15;;;11.70;;
6852;SDS011;3465;42.144;24.722;2024-03-17T08:28:00;20.90;;;10.80;;
6852;SDS011;3465;42.144;24.722;2024-03-17T08:30:26;18.95;;;11.95;;
6852;SDS011;3465;42.144;24.722;2024-03-17T08:32:51;20.38;;;12.02;;
6852;SDS011;3465;42.144;24.722;2024-03-17T08:35:17;16.92;;;11.20;;
6852;SDS011;3465;42.144;24.722;2024-03-17T08:40:09;23.40;;;12.32;;
6852;SDS011;3465;42.144;24.722;2024-03-17T08:42:36;19.45;;;12.25;;
6852;SDS011;3465;42.144;24.722;2024-03-17T08:47:28;20.77;;;12.75;;
6852;SDS011;3465;42.144;24.722;2024-03-17T08:49:53;22.60;;;12.70;;
6852;SDS011;3465;42.144;24.722;2024-03-17T08:54:46;16.83;;;11.10;;
6852;SDS011;3465;42.144;24.722;2024-03-17T08:57:12;17.13;;;11.60;;
6852;SDS011;3465;42.144;24.722;2024-03-17T08:59:39;24.50;;;12.02;;
6852;SDS011;3465;42.144;24.722;2024-03-17T09:04:31;17.42;;;11.43;;
6852;SDS011;3465;42.144;24.722;2024-03-17T09:09:22;17.25;;;10.65;;
6852;SDS011;3465;42.144;24.722;2024-03-17T09:14:16;22.30;;;11.90;;
6852;SDS011;3465;42.144;24.722;2024-03-17T09:19:07;16.48;;;9.98;;
6852;SDS011;3465;42.144;24.722;2024-03-17T09:21:34;15.68;;;10.15;;
6852;SDS011;3465;42.144;24.722;2024-03-17T09:26:25;17.25;;;9.68;;
6852;SDS011;3465;42.144;24.722;2024-03-17T09:31:16;13.93;;;9.77;;
6852;SDS011;3465;42.144;24.722;2024-03-17T09:33:41;15.25;;;8.65;;
6852;SDS011;3465;42.144;24.722;2024-03-17T09:36:07;17.95;;;9.35;;
6852;SDS011;3465;42.144;24.722;2024-03-17T09:38:38;13.70;;;9.10;;
6852;SDS011;3465;42.144;24.722;2024-03-17T09:41:05;14.45;;;9.35;;
6852;SDS011;3465;42.144;24.722;2024-03-17T09:43:34;16.75;;;10.20;;
6852;SDS011;3465;42.144;24.722;2024-03-17T09:46:04;16.02;;;9.30;;
6852;SDS011;3465;42.144;24.722;2024-03-17T09:48:30;15.38;;;10.40;;
6852;SDS011;3465;42.144;24.722;2024-03-17T09:50:57;15.70;;;9.07;;
6852;SDS011;3465;42.144;24.722;2024-03-17T09:53:29;12.90;;;9.07;;
6852;SDS011;3465;42.144;24.722;2024-03-17T09:56:00;10.60;;;7.57;;
6852;SDS011;3465;42.144;24.722;2024-03-17T09:58:31;15.85;;;9.30;;
6852;SDS011;3465;42.144;24.722;2024-03-17T10:00:56;14.93;;;8.85;;
6852;SDS011;3465;42.144;24.722;2024-03-17T10:06:08;18.98;;;10.25;;
6852;SDS011;3465;42.144;24.722;2024-03-17T10:08:56;12.77;;;9.02;;
6852;SDS011;3465;42.144;24.722;2024-03-17T10:11:23;13.32;;;8.90;;
6852;SDS011;3465;42.144;24.722;2024-03-17T10:14:02;14.43;;;8.40;;
6852;SDS011;3465;42.144;24.722;2024-03-17T10:16:30;13.95;;;8.32;;
6852;SDS011;3465;42.144;24.722;2024-03-17T10:19:05;13.85;;;8.55;;
6852;SDS011;3465;42.144;24.722;2024-03-17T10:21:43;9.82;;;7.10;;
6852;SDS011;3465;42.144;24.722;2024-03-17T10:24:23;11.02;;;7.50;;
6852;SDS011;3465;42.144;24.722;2024-03-17T10:26:53;16.15;;;8.02;;
6852;SDS011;3465;42.144;24.722;2024-03-17T10:29:33;12.85;;;8.35;;
6852;SDS011;3465;42.144;24.722;2024-03-17T10:32:03;12.60;;;7.57;;
6852;SDS011;3465;42.144;24.722;2024-03-17T10:34:38;12.93;;;8.25;;
6852;SDS011;3465;42.144;24.722;2024-03-17T10:37:17;13.05;;;7.70;;
6852;SDS011;3465;42.144;24.722;2024-03-17T10:39:45;11.25;;;6.85;;
6852;SDS011;3465;42.144;24.722;2024-03-17T10:42:13;10.52;;;7.18;;
6852;SDS011;3465;42.144;24.722;2024-03-17T10:44:42;13.02;;;7.68;;
6852;SDS011;3465;42.144;24.722;2024-03-17T10:47:21;9.93;;;6.78;;
6852;SDS011;3465;42.144;24.722;2024-03-17T10:49:47;8.68;;;6.18;;
6852;SDS011;3465;42.144;24.722;2024-03-17T10:52:15;11.07;;;6.55;;
6852;SDS011;3465;42.144;24.722;2024-03-17T10:54:52;8.50;;;5.25;;
6852;SDS011;3465;42.144;24.722;2024-03-17T11:00:03;8.65;;;5.32;;
6852;SDS011;3465;42.144;24.722;2024-03-17T11:02:34;9.52;;;6.15;;
6852;SDS011;3465;42.144;24.722;2024-03-17T11:07:46;7.80;;;4.78;;
6852;SDS011;3465;42.144;24.722;2024-03-17T11:12:47;7.82;;;5.10;;
6852;SDS011;3465;42.144;24.722;2024-03-17T11:20:33;7.85;;;5.20;;
6852;SDS011;3465;42.144;24.722;2024-03-17T11:23:04;6.63;;;4.13;;
6852;SDS011;3465;42.144;24.722;2024-03-17T11:28:03;7.70;;;5.38;;
6852;SDS011;3465;42.144;24.722;2024-03-17T11:38:59;5.68;;;3.95;;
6852;SDS011;3465;42.144;24.722;2024-03-17T11:41:36;6.07;;;4.32;;
6852;SDS011;3465;42.144;24.722;2024-03-17T11:49:27;6.10;;;4.32;;
6852;SDS011;3465;42.144;24.722;2024-03-17T11:52:00;6.10;;;4.00;;
6852;SDS011;3465;42.144;24.722;2024-03-17T11:54:39;5.57;;;4.05;;
6852;SDS011;3465;42.144;24.722;2024-03-17T11:57:07;6.82;;;4.85;;
6852;SDS011;3465;42.144;24.722;2024-03-17T11:59:34;5.65;;;4.45;;
6852;SDS011;3465;42.144;24.722;2024-03-17T12:02:00;5.78;;;4.15;;
6852;SDS011;3465;42.144;24.722;2024-03-17T12:04:29;5.80;;;4.32;;
6852;SDS011;3465;42.144;24.722;2024-03-17T12:06:57;5.97;;;3.80;;
6852;SDS011;3465;42.144;24.722;2024-03-17T12:09:24;10.50;;;4.90;;
6852;SDS011;3465;42.144;24.722;2024-03-17T12:14:30;5.10;;;3.70;;
6852;SDS011;3465;42.144;24.722;2024-03-17T12:17:00;4.85;;;3.90;;
6852;SDS011;3465;42.144;24.722;2024-03-17T12:19:27;6.30;;;5.28;;
6852;SDS011;3465;42.144;24.722;2024-03-17T12:21:53;5.90;;;3.35;;
6852;SDS011;3465;42.144;24.722;2024-03-17T12:24:22;6.43;;;4.55;;
6852;SDS011;3465;42.144;24.722;2024-03-17T12:26:58;5.13;;;4.07;;
6852;SDS011;3465;42.144;24.722;2024-03-17T12:29:29;4.65;;;3.53;;
6852;SDS011;3465;42.144;24.722;2024-03-17T12:32:00;4.75;;;3.47;;
6852;SDS011;3465;42.144;24.722;2024-03-17T12:34:33;7.47;;;3.15;;
6852;SDS011;3465;42.144;24.722;2024-03-17T12:37:02;5.18;;;4.10;;
6852;SDS011;3465;42.144;24.722;2024-03-17T12:39:29;4.57;;;3.25;;
6852;SDS011;3465;42.144;24.722;2024-03-17T12:42:05;6.47;;;3.72;;
6852;SDS011;3465;42.144;24.722;2024-03-17T12:44:38;4.47;;;3.42;;
6852;SDS011;3465;42.144;24.722;2024-03-17T12:47:23;5.03;;;4.05;;
6852;SDS011;3465;42.144;24.722;2024-03-17T12:49:50;4.47;;;3.50;;
6852;SDS011;3465;42.144;24.722;2024-03-17T12:55:00;5.55;;;3.33;;
6852;SDS011;3465;42.144;24.722;2024-03-17T12:58:12;5.18;;;3.72;;
6852;SDS011;3465;42.144;24.722;2024-03-17T13:01:01;11.50;;;3.67;;
6852;SDS011;3465;42.144;24.722;2024-03-17T13:03:37;4.57;;;3.33;;
6852;SDS011;3465;42.144;24.722;2024-03-17T13:06:05;3.70;;;2.80;;
6852;SDS011;3465;42.144;24.722;2024-03-17T13:08:31;3.75;;;3.00;;
6852;SDS011;3465;42.144;24.722;2024-03-17T13:10:58;4.28;;;3.08;;
6852;SDS011;3465;42.144;24.722;2024-03-17T13:13:24;3.45;;;3.10;;
6852;SDS011;3465;42.144;24.722;2024-03-17T13:15:49;4.60;;;3.17;;
6852;SDS011;3465;42.144;24.722;2024-03-17T13:18:16;4.53;;;3.08;;
6852;SDS011;3465;42.144;24.722;2024-03-17T13:20:46;8.43;;;3.35;;
6852;SDS011;3465;42.144;24.722;2024-03-17T13:23:14;4.47;;;3.40;;
6852;SDS011;3465;42.144;24.722;2024-03-17T13:25:40;5.90;;;3.15;;
6852;SDS011;3465;42.144;24.722;2024-03-17T13:28:08;5.07;;;3.13;;
6852;SDS011;3465;42.144;24.722;2024-03-17T13:30:35;4.32;;;3.13;;
6852;SDS011;3465;42.144;24.722;2024-03-17T13:33:04;3.70;;;3.10;;
6852;SDS011;3465;42.144;24.722;2024-03-17T13:35:33;3.85;;;2.92;;
6852;SDS011;3465;42.144;24.722;2024-03-17T13:38:03;5.32;;;2.75;;
6852;SDS011;3465;42.144;24.722;2024-03-17T13:40:29;4.00;;;2.45;;
6852;SDS011;3465;42.144;24.722;2024-03-17T13:42:56;3.20;;;2.60;;
6852;SDS011;3465;42.144;24.722;2024-03-17T13:45:25;4.03;;;3.42;;
6852;SDS011;3465;42.144;24.722;2024-03-17T13:50:21;5.50;;;3.33;;
6852;SDS011;3465;42.144;24.722;2024-03-17T13:52:47;6.00;;;3.45;;
6852;SDS011;3465;42.144;24.722;2024-03-17T13:55:19;4.88;;;3.08;;
6852;SDS011;3465;42.144;24.722;2024-03-17T13:57:48;3.80;;;2.83;;
6852;SDS011;3465;42.144;24.722;2024-03-17T14:00:16;3.28;;;2.72;;
6852;SDS011;3465;42.144;24.722;2024-03-17T14:02:43;3.95;;;2.80;;
6852;SDS011;3465;42.144;24.722;2024-03-17T14:05:10;3.25;;;2.72;;
6852;SDS011;3465;42.144;24.722;2024-03-17T14:07:38;5.80;;;2.70;;
6852;SDS011;3465;42.144;24.722;2024-03-17T14:10:04;6.32;;;3.13;;
6852;SDS011;3465;42.144;24.722;2024-03-17T14:12:30;7.35;;;2.60;;
6852;SDS011;3465;42.144;24.722;2024-03-17T14:14:56;4.38;;;2.63;;
6852;SDS011;3465;42.144;24.722;2024-03-17T14:17:22;5.22;;;2.97;;
6852;SDS011;3465;42.144;24.722;2024-03-17T14:19:47;5.68;;;3.28;;
6852;SDS011;3465;42.144;24.722;2024-03-17T14:22:13;3.38;;;2.67;;
6852;SDS011;3465;42.144;24.722;2024-03-17T14:24:39;3.85;;;2.63;;
6852;SDS011;3465;42.144;24.722;2024-03-17T14:27:06;3.30;;;3.00;;
6852;SDS011;3465;42.144;24.722;2024-03-17T14:29:31;5.82;;;3.15;;
6852;SDS011;3465;42.144;24.722;2024-03-17T14:31:57;5.28;;;3.03;;
6852;SDS011;3465;42.144;24.722;2024-03-17T14:34:22;4.25;;;3.00;;
6852;SDS011;3465;42.144;24.722;2024-03-17T14:36:48;5.97;;;3.10;;
6852;SDS011;3465;42.144;24.722;2024-03-17T14:39:14;4.63;;;3.17;;
6852;SDS011;3465;42.144;24.722;2024-03-17T14:41:39;3.70;;;3.05;;
6852;SDS011;3465;42.144;24.722;2024-03-17T14:44:05;5.38;;;3.08;;
6852;SDS011;3465;42.144;24.722;2024-03-17T14:46:30;4.30;;;3.08;;
6852;SDS011;3465;42.144;24.722;2024-03-17T14:48:57;5.75;;;3.53;;
6852;SDS011;3465;42.144;24.722;2024-03-17T14:51:22;4.30;;;2.72;;
6852;SDS011;3465;42.144;24.722;2024-03-17T14:53:48;4.85;;;3.42;;
6852;SDS011;3465;42.144;24.722;2024-03-17T14:56:16;4.22;;;3.08;;
6852;SDS011;3465;42.144;24.722;2024-03-17T14:58:43;11.70;;;2.85;;
6852;SDS011;3465;42.144;24.722;2024-03-17T15:01:09;4.45;;;3.45;;
6852;SDS011;3465;42.144;24.722;2024-03-17T15:03:35;5.05;;;3.85;;
6852;SDS011;3465;42.144;24.722;2024-03-17T15:06:01;6.45;;;3.60;;
6852;SDS011;3465;42.144;24.722;2024-03-17T15:08:30;5.35;;;3.90;;
6852;SDS011;3465;42.144;24.722;2024-03-17T15:10:55;6.25;;;3.40;;
6852;SDS011;3465;42.144;24.722;2024-03-17T15:13:21;9.05;;;3.38;;
6852;SDS011;3465;42.144;24.722;2024-03-17T15:15:48;4.40;;;3.40;;
6852;SDS011;3465;42.144;24.722;2024-03-17T15:18:14;5.18;;;3.67;;
6852;SDS011;3465;42.144;24.722;2024-03-17T15:20:41;4.80;;;3.35;;
6852;SDS011;3465;42.144;24.722;2024-03-17T15:23:07;4.68;;;3.67;;
6852;SDS011;3465;42.144;24.722;2024-03-17T15:25:33;6.60;;;3.40;;
6852;SDS011;3465;42.144;24.722;2024-03-17T15:27:58;5.13;;;3.53;;
6852;SDS011;3465;42.144;24.722;2024-03-17T15:30:26;4.78;;;3.53;;
6852;SDS011;3465;42.144;24.722;2024-03-17T15:32:54;7.53;;;4.57;;
6852;SDS011;3465;42.144;24.722;2024-03-17T15:35:20;11.82;;;4.32;;
6852;SDS011;3465;42.144;24.722;2024-03-17T15:37:46;4.68;;;3.03;;
6852;SDS011;3465;42.144;24.722;2024-03-17T15:40:13;8.60;;;3.47;;
6852;SDS011;3465;42.144;24.722;2024-03-17T15:42:45;3.42;;;3.10;;
6852;SDS011;3465;42.144;24.722;2024-03-17T15:45:12;11.65;;;3.45;;
6852;SDS011;3465;42.144;24.722;2024-03-17T15:47:38;19.63;;;7.85;;
6852;SDS011;3465;42.144;24.722;2024-03-17T15:50:04;9.38;;;4.53;;
6852;SDS011;3465;42.144;24.722;2024-03-17T15:52:30;15.07;;;5.35;;
6852;SDS011;3465;42.144;24.722;2024-03-17T15:54:56;9.95;;;4.25;;
6852;SDS011;3465;42.144;24.722;2024-03-17T15:57:22;9.18;;;5.00;;
6852;SDS011;3465;42.144;24.722;2024-03-17T15:59:50;7.88;;;4.35;;
6852;SDS011;3465;42.144;24.722;2024-03-17T16:02:18;10.23;;;5.20;;
6852;SDS011;3465;42.144;24.722;2024-03-17T16:04:44;8.48;;;5.35;;
6852;SDS011;3465;42.144;24.722;2024-03-17T16:07:12;10.77;;;4.85;;
6852;SDS011;3465;42.144;24.722;2024-03-17T16:09:38;10.55;;;5.55;;